Aviation Digital Data Service (ADDS)

Output produced by METARs form (0146 UTC 20 October 2017)
found at http://aviationweather.gov/adds/metars/
 
KLGA 192340Z 2000/2024 22009KT P6SM FEW250 
     FM200300 25008KT P6SM FEW250 
     FM200900 30008KT P6SM FEW250 
     FM201400 31010G17KT P6SM FEW250 
     FM202200 31008KT P6SM FEW250